Time;durP1;ratioP1;P1;durP2;ratioP2;P2;SDS_P1;SDS_P2;PMS_P1;PMS_P2;Temp;Humidity;BMP_temperature;BMP_pressure;BME280_temperature;BME280_humidity;BME280_pressure;Samples;Min_cycle;Max_cycle;Signal;HPM_P1;HPM_P2
2023/07/13 00:01:29;;;;;;;11.70;2.90;;;;;;;14.86;74.05;101370.72;5016180;28;20495;-64
2023/07/13 00:03:56;;;;;;;9.10;2.80;;;;;;;14.86;74.10;101362.69;5011715;28;20105;-65
2023/07/13 00:06:22;;;;;;;10.70;2.80;;;;;;;14.85;74.36;101366.38;5013668;28;20029;-64
2023/07/13 00:08:48;;;;;;;7.57;2.70;;;;;;;14.84;74.42;101375.41;5028586;28;20017;-64
2023/07/13 00:11:15;;;;;;;9.48;2.55;;;;;;;14.84;74.83;101380.78;5026332;28;20036;-64
2023/07/13 00:13:41;;;;;;;11.98;2.67;;;;;;;14.83;74.82;101379.09;5027329;28;20029;-64
2023/07/13 00:16:08;;;;;;;8.43;2.72;;;;;;;14.78;75.36;101370.81;5022123;28;20052;-65
2023/07/13 00:18:34;;;;;;;9.73;2.63;;;;;;;14.77;74.88;101377.19;5019576;28;20037;-64
2023/07/13 00:21:05;;;;;;;5.88;2.67;;;;;;;14.77;75.61;101358.47;5017136;28;20029;-64
2023/07/13 00:23:39;;;;;;;9.07;2.75;;;;;;;14.73;75.81;101360.66;5018492;28;20065;-64
2023/07/13 00:26:07;;;;;;;8.07;3.05;;;;;;;14.73;75.42;101360.66;5017748;28;20511;-64
2023/07/13 00:28:33;;;;;;;9.75;3.38;;;;;;;14.71;76.19;101367.19;5009398;28;20430;-64
2023/07/13 00:30:59;;;;;;;7.72;3.25;;;;;;;14.65;76.08;101366.09;5022886;28;20036;-64
2023/07/13 00:33:26;;;;;;;6.93;2.55;;;;;;;14.60;75.90;101367.69;5020633;28;20021;-64
2023/07/13 00:35:54;;;;;;;10.07;3.15;;;;;;;14.52;75.85;101371.28;5024210;28;20032;-64
2023/07/13 00:38:19;;;;;;;9.57;3.10;;;;;;;14.48;76.16;101369.97;5020954;28;20021;-64
2023/07/13 00:40:44;;;;;;;10.48;2.90;;;;;;;14.47;76.32;101369.16;5019296;28;20075;-64
2023/07/13 00:43:16;;;;;;;11.15;3.13;;;;;;;14.45;76.98;101371.16;5017028;28;20036;-65
2023/07/13 00:45:44;;;;;;;10.25;3.05;;;;;;;14.44;77.01;101371.34;5024471;28;20022;-64
2023/07/13 00:48:17;;;;;;;10.38;3.47;;;;;;;14.41;77.61;101375.16;5019174;28;20021;-64
2023/07/13 00:50:44;;;;;;;6.93;2.80;;;;;;;14.38;77.35;101364.03;5014918;28;20033;-64
2023/07/13 00:53:11;;;;;;;6.57;3.22;;;;;;;14.35;77.78;101365.22;5014298;28;20028;-64
2023/07/13 00:55:37;;;;;;;11.65;3.35;;;;;;;14.33;77.95;101369.91;5026292;28;20476;-64
2023/07/13 00:58:04;;;;;;;8.13;3.05;;;;;;;14.28;78.24;101372.31;5026303;28;20036;-64
2023/07/13 01:00:30;;;;;;;12.45;3.42;;;;;;;14.12;78.36;101351.06;5019947;28;20593;-64
2023/07/13 01:02:57;;;;;;;11.95;3.30;;;;;;;14.25;78.56;101378.03;5020281;28;20029;-64
2023/07/13 01:05:23;;;;;;;11.32;3.30;;;;;;;14.23;78.51;101377.38;5022699;28;20025;-65
2023/07/13 01:07:51;;;;;;;10.32;2.88;;;;;;;14.21;78.79;101374.06;5025879;28;20513;-65
2023/07/13 01:10:20;;;;;;;11.48;3.70;;;;;;;14.20;79.17;101375.06;5027110;28;20057;-64
2023/07/13 01:12:46;;;;;;;11.23;3.95;;;;;;;14.20;78.87;101375.91;5010053;28;20030;-64
2023/07/13 01:15:38;;;;;;;12.52;3.42;;;;;;;14.19;79.33;101373.41;5008779;28;20033;-64
2023/07/13 01:18:06;;;;;;;10.23;3.00;;;;;;;14.16;79.56;101377.25;5023660;28;20029;-64
2023/07/13 01:20:36;;;;;;;8.25;3.20;;;;;;;14.16;79.36;101379.91;5015094;28;20014;-64
2023/07/13 01:23:08;;;;;;;10.52;3.20;;;;;;;14.15;79.39;101385.44;5024335;28;20088;-64
2023/07/13 01:25:35;;;;;;;10.25;3.83;;;;;;;14.09;79.45;101389.66;5020482;28;20491;-64
2023/07/13 01:28:01;;;;;;;7.97;3.20;;;;;;;14.07;79.99;101398.88;5017700;28;20017;-65
2023/07/13 01:30:26;;;;;;;10.35;3.45;;;;;;;14.04;80.10;101388.56;5023024;28;20442;-64
2023/07/13 01:32:52;;;;;;;9.02;3.33;;;;;;;14.02;80.79;101388.72;5011401;28;20585;-64
2023/07/13 01:35:17;;;;;;;12.23;3.40;;;;;;;14.01;80.76;101386.25;5019471;28;20053;-64
2023/07/13 01:37:44;;;;;;;10.80;3.40;;;;;;;14.01;81.43;101397.75;5008901;28;20111;-64
2023/07/13 01:40:12;;;;;;;11.73;3.72;;;;;;;13.98;81.16;101386.59;5019325;28;20022;-64
2023/07/13 01:42:37;;;;;;;11.80;3.40;;;;;;;13.95;81.71;101387.78;5022241;28;20037;-65
2023/07/13 01:45:03;;;;;;;14.55;3.50;;;;;;;13.90;81.58;101391.00;5021694;28;20550;-64
2023/07/13 01:47:30;;;;;;;8.73;3.47;;;;;;;13.88;81.89;101387.69;5023675;28;20021;-64
2023/07/13 01:49:56;;;;;;;10.43;3.35;;;;;;;13.83;81.93;101384.69;5022366;28;20056;-64
2023/07/13 01:52:22;;;;;;;8.48;2.90;;;;;;;13.80;82.16;101390.41;5024177;28;20403;-64
2023/07/13 01:54:47;;;;;;;10.55;3.30;;;;;;;13.75;82.00;101387.44;5021834;28;20021;-64
2023/07/13 01:57:13;;;;;;;7.47;2.95;;;;;;;13.73;82.05;101394.78;5011439;28;20589;-64
2023/07/13 01:59:38;;;;;;;8.70;3.35;;;;;;;13.70;82.18;101380.97;5012756;28;20026;-64
2023/07/13 02:02:04;;;;;;;9.75;3.10;;;;;;;13.70;82.39;101387.16;5015493;28;20030;-64
2023/07/13 02:04:29;;;;;;;14.55;3.55;;;;;;;13.68;82.58;101389.16;5025593;28;20200;-64
2023/07/13 02:06:55;;;;;;;6.05;2.90;;;;;;;13.68;82.97;101386.50;5024653;28;20144;-64
2023/07/13 02:09:21;;;;;;;10.13;3.40;;;;;;;13.58;82.74;101386.69;5024577;28;20029;-64
2023/07/13 02:11:46;;;;;;;12.40;3.95;;;;;;;13.62;83.04;101392.53;5013712;28;20025;-64
2023/07/13 02:14:11;;;;;;;12.73;3.72;;;;;;;13.60;83.02;101402.56;5024747;28;20033;-64
2023/07/13 02:16:37;;;;;;;9.85;3.60;;;;;;;13.59;83.65;101395.56;5013984;28;20509;-64
2023/07/13 02:19:02;;;;;;;9.65;3.25;;;;;;;13.55;84.16;101395.06;5019990;28;20170;-64
2023/07/13 02:21:28;;;;;;;11.48;3.75;;;;;;;13.55;84.03;101405.75;5014801;28;20087;-64
2023/07/13 02:23:54;;;;;;;12.95;3.45;;;;;;;13.53;84.47;101394.41;5010059;28;20076;-64
2023/07/13 02:26:20;;;;;;;11.52;3.25;;;;;;;13.53;85.16;101398.91;5023603;28;20108;-64
2023/07/13 02:28:45;;;;;;;12.13;3.60;;;;;;;13.53;85.06;101391.75;5027486;28;20118;-64
2023/07/13 02:31:14;;;;;;;12.43;3.67;;;;;;;13.54;85.09;101400.59;5028242;28;20108;-64
2023/07/13 02:33:39;;;;;;;11.73;3.85;;;;;;;13.53;85.05;101396.25;5026972;28;20029;-64
2023/07/13 02:36:05;;;;;;;8.15;3.30;;;;;;;13.54;85.81;101392.56;5027969;28;20064;-64
2023/07/13 02:38:36;;;;;;;13.02;3.60;;;;;;;13.55;85.47;101396.91;5029334;28;20395;-64
2023/07/13 02:41:05;;;;;;;10.15;3.70;;;;;;;13.53;85.67;101396.25;5026152;28;20030;-64
2023/07/13 02:43:31;;;;;;;;;;;;;;;13.56;85.79;101403.91;5019745;28;20057;-64
2023/07/13 02:45:56;;;;;;;10.25;3.40;;;;;;;13.53;85.73;101404.25;5016996;28;19940;-64
2023/07/13 02:48:21;;;;;;;13.30;3.58;;;;;;;13.53;86.57;101390.91;5019519;28;20029;-64
2023/07/13 02:50:47;;;;;;;15.25;3.95;;;;;;;13.53;86.42;101396.25;5025805;28;20529;-64
2023/07/13 02:53:12;;;;;;;11.07;3.30;;;;;;;13.54;86.81;101400.59;5029496;28;20431;-64
2023/07/13 02:55:39;;;;;;;11.40;3.65;;;;;;;13.58;86.98;101399.22;5030374;28;20017;-64
2023/07/13 02:58:05;;;;;;;15.68;3.92;;;;;;;13.60;86.91;101400.72;5026782;28;20365;-64
2023/07/13 03:00:31;;;;;;;10.85;3.70;;;;;;;13.61;87.26;101393.56;5028560;28;20549;-64
2023/07/13 03:02:57;;;;;;;11.98;3.70;;;;;;;13.59;87.02;101396.41;5028640;28;20029;-64
2023/07/13 03:05:23;;;;;;;12.00;3.92;;;;;;;13.61;87.14;101393.56;5029376;28;20079;-64
2023/07/13 03:07:48;;;;;;;11.82;3.58;;;;;;;13.63;87.51;101403.03;5017243;28;20083;-64
2023/07/13 03:10:14;;;;;;;11.27;3.58;;;;;;;13.63;87.22;101402.22;5017604;28;20026;-64
2023/07/13 03:12:39;;;;;;;14.18;3.80;;;;;;;13.60;87.34;101403.41;5024082;28;20100;-64
2023/07/13 03:15:05;;;;;;;15.73;3.97;;;;;;;13.59;87.63;101403.56;5023752;28;20036;-64
2023/07/13 03:17:30;;;;;;;12.07;3.58;;;;;;;13.54;87.61;101404.06;5024843;28;20095;-64
2023/07/13 03:19:57;;;;;;;14.52;3.88;;;;;;;13.54;87.72;101408.59;5027124;28;20121;-64
2023/07/13 03:22:22;;;;;;;12.52;4.15;;;;;;;13.52;88.15;101403.44;5029352;28;20053;-64
2023/07/13 03:24:48;;;;;;;9.32;3.42;;;;;;;13.50;88.29;101420.63;5018722;28;20128;-64
2023/07/13 03:27:15;;;;;;;9.30;3.88;;;;;;;13.48;88.47;101412.78;5022704;28;20025;-64
2023/07/13 03:29:40;;;;;;;15.00;3.78;;;;;;;13.48;88.39;101411.97;5022899;28;20502;-64
2023/07/13 03:32:06;;;;;;;16.70;4.25;;;;;;;13.44;88.42;101414.16;5015925;28;20163;-64
2023/07/13 03:34:32;;;;;;;10.45;3.90;;;;;;;13.40;88.14;101415.50;5023606;28;20028;-64
2023/07/13 03:36:58;;;;;;;13.40;3.95;;;;;;;13.37;88.63;101425.72;5019084;28;20511;-64
2023/07/13 03:39:23;;;;;;;12.13;3.65;;;;;;;13.35;88.77;101417.88;5023282;28;20030;-64
2023/07/13 03:41:48;;;;;;;12.48;4.10;;;;;;;13.30;88.59;101417.56;5019867;28;20813;-64
2023/07/13 03:44:16;;;;;;;11.43;3.97;;;;;;;13.29;88.67;101430.06;5022040;28;20033;-64
2023/07/13 03:46:42;;;;;;;10.02;4.05;;;;;;;13.26;89.23;101430.41;5021850;28;20026;-64
2023/07/13 03:49:07;;;;;;;12.05;4.05;;;;;;;13.25;89.24;101419.91;5021638;28;20087;-64
2023/07/13 03:51:33;;;;;;;11.23;3.97;;;;;;;13.23;89.42;101422.75;5023740;28;20025;-64
2023/07/13 03:53:58;;;;;;;12.77;4.10;;;;;;;13.22;89.56;101426.41;5017676;28;20030;-64
2023/07/13 03:56:24;;;;;;;11.43;4.15;;;;;;;13.22;89.96;101429.09;5020312;28;20063;-64
2023/07/13 03:58:50;;;;;;;14.80;4.15;;;;;;;13.20;90.08;101433.78;5027641;28;20091;-64
2023/07/13 04:01:18;;;;;;;11.57;4.00;;;;;;;13.21;90.72;101439.94;5026297;28;20063;-64
2023/07/13 04:03:46;;;;;;;16.83;4.53;;;;;;;13.21;90.77;101439.94;5028048;28;20036;-64
2023/07/13 04:06:20;;;;;;;14.43;4.40;;;;;;;13.20;90.89;101439.09;5026538;28;20017;-65
2023/07/13 04:08:49;;;;;;;15.30;4.18;;;;;;;13.20;91.15;101435.59;5023646;28;20115;-64
2023/07/13 04:11:14;;;;;;;15.07;4.63;;;;;;;13.18;91.08;101441.13;5018819;28;20445;-64
2023/07/13 04:13:40;;;;;;;13.38;4.50;;;;;;;13.18;91.22;101442.94;5017690;28;20101;-64
2023/07/13 04:16:05;;;;;;;14.48;4.90;;;;;;;13.16;91.67;101445.75;5024766;28;20036;-64
2023/07/13 04:18:30;;;;;;;10.95;3.97;;;;;;;13.14;91.85;101445.09;5019516;28;20381;-64
2023/07/13 04:20:56;;;;;;;10.10;4.22;;;;;;;13.17;91.80;101454.59;5017775;28;20030;-64
2023/07/13 04:23:21;;;;;;;11.55;4.53;;;;;;;13.18;91.79;101450.94;5015222;28;20403;-64
2023/07/13 04:25:49;;;;;;;10.80;4.20;;;;;;;13.18;91.94;101458.94;5022082;28;20067;-64
2023/07/13 04:28:15;;;;;;;17.00;4.93;;;;;;;13.22;92.07;101466.44;5023809;28;20563;-64
2023/07/13 04:30:40;;;;;;;15.75;4.95;;;;;;;13.21;92.91;101459.44;5021286;28;20032;-65
2023/07/13 04:33:06;;;;;;;18.02;4.82;;;;;;;13.28;93.19;101465.72;5019867;28;20030;-64
2023/07/13 04:35:31;;;;;;;17.08;5.20;;;;;;;13.32;93.33;101461.75;5027219;28;20025;-64
2023/07/13 04:37:57;;;;;;;14.90;4.95;;;;;;;13.36;93.32;101456.88;5022128;28;20152;-64
2023/07/13 04:40:22;;;;;;;13.18;4.28;;;;;;;13.38;93.21;101460.22;5021538;28;20032;-64
2023/07/13 04:42:48;;;;;;;17.83;4.88;;;;;;;13.44;93.33;101466.69;5025717;28;20025;-64
2023/07/13 04:45:14;;;;;;;19.25;5.00;;;;;;;13.48;94.00;101468.00;5027503;28;20261;-64
2023/07/13 04:47:40;;;;;;;17.25;5.40;;;;;;;13.55;94.10;101476.97;5019834;28;20472;-64
2023/07/13 04:50:06;;;;;;;14.77;5.32;;;;;;;13.57;94.11;101470.44;5024659;28;20045;-64
2023/07/13 04:52:32;;;;;;;16.23;5.70;;;;;;;13.64;93.78;101476.75;5020427;28;20022;-65
2023/07/13 04:54:58;;;;;;;15.50;5.88;;;;;;;13.68;94.23;101474.56;5025128;28;20025;-64
2023/07/13 04:57:24;;;;;;;16.83;6.20;;;;;;;13.72;94.17;101475.88;5022653;28;20116;-64
2023/07/13 04:59:49;;;;;;;15.15;6.43;;;;;;;13.79;94.54;101479.50;5024403;28;20021;-64
2023/07/13 05:02:14;;;;;;;17.83;7.10;;;;;;;13.87;94.62;101476.78;5019365;28;20026;-64
2023/07/13 05:04:40;;;;;;;21.30;7.03;;;;;;;13.93;94.76;101484.09;5019326;28;20542;-64
2023/07/13 05:07:06;;;;;;;23.52;6.95;;;;;;;13.98;94.54;101477.41;5020142;28;20026;-64
2023/07/13 05:09:31;;;;;;;17.98;7.32;;;;;;;14.03;94.55;101481.19;5025821;28;20112;-64
2023/07/13 05:11:57;;;;;;;18.48;7.25;;;;;;;14.08;94.47;101486.00;5026064;28;20113;-64
2023/07/13 05:14:22;;;;;;;20.00;7.68;;;;;;;14.12;94.56;101485.47;5024518;28;20022;-64
2023/07/13 05:16:47;;;;;;;23.48;7.57;;;;;;;14.17;94.52;101493.78;5027920;28;20052;-64
2023/07/13 05:19:13;;;;;;;16.05;7.47;;;;;;;14.22;94.36;101488.75;5019107;28;20028;-64
2023/07/13 05:21:38;;;;;;;21.55;8.98;;;;;;;14.26;94.37;101483.88;5022677;28;20538;-64
2023/07/13 05:24:03;;;;;;;17.83;8.70;;;;;;;14.33;94.19;101489.31;5020008;28;20029;-64
2023/07/13 05:26:29;;;;;;;31.55;10.18;;;;;;;14.41;94.47;101497.25;5018849;28;20026;-64
2023/07/13 05:28:54;;;;;;;23.27;9.90;;;;;;;14.46;94.07;101494.94;5016839;28;20036;-64
2023/07/13 05:31:20;;;;;;;25.80;10.18;;;;;;;14.51;94.14;101501.41;5019235;28;20018;-64
2023/07/13 05:33:45;;;;;;;25.10;11.23;;;;;;;14.59;94.16;101503.16;5023829;28;20053;-64
2023/07/13 05:36:10;;;;;;;23.63;10.50;;;;;;;14.63;94.28;101499.13;5023432;28;20394;-64
2023/07/13 05:38:36;;;;;;;28.65;11.70;;;;;;;14.71;94.19;101511.56;5021084;28;20025;-64
2023/07/13 05:41:01;;;;;;;28.73;11.65;;;;;;;14.77;94.19;101511.69;5016563;28;20410;-64
2023/07/13 05:43:27;;;;;;;29.55;12.43;;;;;;;14.84;94.15;101512.63;5024828;28;20021;-64
2023/07/13 05:45:54;;;;;;;25.50;12.10;;;;;;;14.92;94.19;101510.88;5015142;28;20092;-64
2023/07/13 05:48:20;;;;;;;29.70;12.35;;;;;;;15.01;93.80;101507.09;5027868;28;20030;-64
2023/07/13 05:50:45;;;;;;;26.13;12.32;;;;;;;15.09;93.80;101512.38;5025600;28;20525;-64
2023/07/13 05:53:12;;;;;;;30.35;13.30;;;;;;;15.12;93.56;101510.16;5020490;28;20505;-64
2023/07/13 05:55:47;;;;;;;41.10;13.38;;;;;;;15.17;93.51;101521.16;5019007;28;20034;-67
2023/07/13 05:58:13;;;;;;;32.63;13.73;;;;;;;15.21;93.34;101518.09;5015573;28;20026;-67
2023/07/13 06:00:38;;;;;;;30.77;14.02;;;;;;;15.25;93.21;101522.06;5022652;28;20380;-66
2023/07/13 06:03:04;;;;;;;29.33;14.30;;;;;;;15.28;92.78;101525.19;5027606;28;20054;-66
2023/07/13 06:05:29;;;;;;;35.53;14.75;;;;;;;15.30;92.85;101525.00;5019220;28;20097;-66
2023/07/13 06:07:55;;;;;;;36.92;14.65;;;;;;;15.36;93.10;101527.81;5027125;28;20497;-67
2023/07/13 06:10:20;;;;;;;35.60;15.50;;;;;;;15.42;93.01;101529.72;5026508;28;20121;-67
2023/07/13 06:12:46;;;;;;;33.75;15.18;;;;;;;15.47;92.80;101537.19;5026387;28;20048;-67
2023/07/13 06:15:11;;;;;;;35.60;16.90;;;;;;;15.52;92.55;101545.50;5020921;28;20482;-64
2023/07/13 06:17:37;;;;;;;34.30;15.68;;;;;;;15.57;92.36;101545.78;5023156;28;20071;-64
2023/07/13 06:20:02;;;;;;;32.40;15.65;;;;;;;15.58;91.96;101542.09;5021075;28;20025;-64
2023/07/13 06:22:28;;;;;;;34.50;15.40;;;;;;;15.64;92.10;101546.75;5026207;28;20092;-64
2023/07/13 06:24:53;;;;;;;34.28;16.17;;;;;;;15.68;92.08;101548.03;5018190;28;20037;-64
2023/07/13 06:27:18;;;;;;;36.95;16.35;;;;;;;15.72;91.92;101541.28;5029507;28;20028;-64
2023/07/13 06:29:45;;;;;;;31.38;15.40;;;;;;;15.78;91.95;101555.75;5014429;28;20034;-64
2023/07/13 06:32:10;;;;;;;39.42;16.80;;;;;;;15.84;91.85;101551.50;5016012;28;20030;-64
2023/07/13 06:34:36;;;;;;;34.78;16.55;;;;;;;15.87;91.69;101548.44;5026376;28;20492;-64
2023/07/13 06:37:01;;;;;;;38.67;18.67;;;;;;;15.92;91.44;101548.72;5025307;28;20033;-64
2023/07/13 06:39:26;;;;;;;35.88;17.55;;;;;;;15.99;91.26;101549.63;5024771;28;20108;-64
2023/07/13 06:41:52;;;;;;;37.78;17.48;;;;;;;16.10;91.08;101549.13;5022369;28;20036;-64
2023/07/13 06:44:17;;;;;;;38.72;17.65;;;;;;;16.18;90.99;101551.69;5022435;28;20017;-64
2023/07/13 06:46:43;;;;;;;33.13;16.45;;;;;;;16.25;90.72;101559.81;5025710;28;20021;-64
2023/07/13 06:49:09;;;;;;;34.22;16.85;;;;;;;16.26;90.51;101554.25;5023682;28;20018;-64
2023/07/13 06:51:34;;;;;;;31.33;16.83;;;;;;;16.26;90.14;101564.97;5018085;28;20494;-64
2023/07/13 06:54:00;;;;;;;36.45;16.70;;;;;;;16.25;89.92;101563.31;5022780;28;20502;-64
2023/07/13 06:56:25;;;;;;;36.45;17.45;;;;;;;16.29;89.88;101566.44;5024832;28;20039;-64
2023/07/13 06:58:51;;;;;;;35.05;16.88;;;;;;;16.26;89.38;101566.84;5028370;28;20031;-64
2023/07/13 07:01:16;;;;;;;34.42;16.75;;;;;;;16.28;89.70;101578.19;5026248;28;20053;-64
2023/07/13 07:03:41;;;;;;;33.88;17.45;;;;;;;16.27;89.32;101572.00;5028004;28;20422;-64
2023/07/13 07:06:16;;;;;;;29.77;16.77;;;;;;;16.30;89.79;101578.81;5023689;28;20030;-64
2023/07/13 07:08:41;;;;;;;34.47;16.58;;;;;;;16.37;89.75;101577.88;5027290;28;20506;-64
2023/07/13 07:11:13;;;;;;;36.65;17.10;;;;;;;16.41;89.54;101578.31;5022709;28;20030;-64
2023/07/13 07:13:39;;;;;;;42.20;17.75;;;;;;;16.42;89.50;101583.47;5026095;28;20071;-64
2023/07/13 07:16:04;;;;;;;34.28;16.48;;;;;;;16.45;88.96;101574.22;5027472;28;20391;-64
2023/07/13 07:18:30;;;;;;;36.40;17.90;;;;;;;16.49;89.16;101572.03;5025449;28;20025;-64
2023/07/13 07:20:55;;;;;;;40.22;17.52;;;;;;;16.56;88.93;101578.28;5025182;28;20101;-64
2023/07/13 07:23:20;;;;;;;36.40;17.02;;;;;;;16.56;88.56;101576.41;5023833;28;20033;-64
2023/07/13 07:25:46;;;;;;;34.13;17.10;;;;;;;16.58;88.66;101579.72;5026529;28;20364;-64
2023/07/13 07:28:14;;;;;;;35.45;16.50;;;;;;;16.62;88.52;101585.53;5023479;28;20091;-64
2023/07/13 07:30:43;;;;;;;27.87;15.80;;;;;;;16.66;88.35;101589.53;5025183;28;20021;-64
2023/07/13 07:33:08;;;;;;;31.02;16.05;;;;;;;16.65;87.92;101587.84;5022566;28;20076;-64
2023/07/13 07:35:34;;;;;;;30.42;15.63;;;;;;;16.63;87.43;101588.03;5028387;28;20426;-64
2023/07/13 07:37:59;;;;;;;30.33;15.60;;;;;;;16.65;87.45;101593.19;5025345;28;20036;-64
2023/07/13 07:40:25;;;;;;;33.08;16.10;;;;;;;16.77;88.10;101594.41;5025017;28;20017;-64
2023/07/13 07:42:50;;;;;;;32.72;16.17;;;;;;;16.90;87.42;101588.31;5026372;28;20525;-64
2023/07/13 07:45:16;;;;;;;32.53;16.13;;;;;;;17.06;87.35;101597.91;5028960;28;20044;-64
2023/07/13 07:47:41;;;;;;;28.33;15.25;;;;;;;17.15;86.83;101586.84;5023972;28;20649;-64
2023/07/13 07:50:07;;;;;;;30.42;15.23;;;;;;;17.21;86.57;101585.22;5027748;28;20084;-63
2023/07/13 07:52:32;;;;;;;30.20;14.85;;;;;;;17.27;85.61;101579.06;5024684;28;20531;-64
2023/07/13 07:54:58;;;;;;;27.88;14.45;;;;;;;17.34;84.35;101586.13;5023246;28;20030;-64
2023/07/13 07:57:23;;;;;;;29.92;14.27;;;;;;;17.32;83.43;101603.47;5023720;28;20072;-65
2023/07/13 07:59:48;;;;;;;27.60;14.38;;;;;;;17.25;83.50;101595.38;5022172;28;20104;-65
2023/07/13 08:02:14;;;;;;;25.95;13.57;;;;;;;17.26;83.30;101601.56;5021855;28;20030;-64
2023/07/13 08:04:39;;;;;;;20.23;11.80;;;;;;;17.22;82.24;101597.63;5026779;28;20111;-64
2023/07/13 08:07:05;;;;;;;25.52;12.25;;;;;;;17.32;82.06;101600.78;5024421;28;20057;-64
2023/07/13 08:09:30;;;;;;;21.08;11.43;;;;;;;17.50;81.73;101606.50;5020707;28;20029;-64
2023/07/13 08:11:56;;;;;;;23.10;11.82;;;;;;;17.64;81.21;101596.66;5024331;28;20032;-65
2023/07/13 08:14:21;;;;;;;22.00;11.52;;;;;;;17.77;80.46;101598.63;5022211;28;20022;-64
2023/07/13 08:16:46;;;;;;;24.33;12.13;;;;;;;17.84;80.47;101605.66;5021678;28;20061;-64
2023/07/13 08:19:12;;;;;;;18.50;10.70;;;;;;;17.94;79.66;101600.78;5023422;28;20029;-64
2023/07/13 08:21:37;;;;;;;21.05;10.48;;;;;;;18.06;78.70;101605.56;5025840;28;20033;-64
2023/07/13 08:24:03;;;;;;;20.35;10.48;;;;;;;18.09;78.22;101611.34;5022393;28;20368;-65
2023/07/13 08:26:29;;;;;;;19.05;11.63;;;;;;;18.07;77.79;101601.84;5012327;28;20109;-65
2023/07/13 08:28:54;;;;;;;21.13;10.48;;;;;;;17.95;76.68;101610.50;5015738;28;20025;-64
2023/07/13 08:31:19;;;;;;;19.52;9.90;;;;;;;18.01;76.38;101598.09;5021489;28;20386;-64
2023/07/13 08:33:45;;;;;;;17.60;10.32;;;;;;;18.13;76.48;101593.78;5020567;28;20029;-64
2023/07/13 08:36:10;;;;;;;20.83;9.93;;;;;;;18.18;76.00;101594.00;5026049;28;20032;-64
2023/07/13 08:38:36;;;;;;;15.48;10.13;;;;;;;18.39;76.46;101595.72;5019637;28;20737;-65
2023/07/13 08:41:14;;;;;;;17.65;9.63;;;;;;;18.38;75.01;101590.56;5027457;28;20021;-64
2023/07/13 08:43:42;;;;;;;17.80;9.07;;;;;;;18.51;75.46;101594.13;5025053;28;20021;-64
2023/07/13 08:46:19;;;;;;;21.17;9.35;;;;;;;18.61;75.09;101603.66;5022876;28;20032;-65
2023/07/13 08:48:47;;;;;;;13.55;8.70;;;;;;;18.69;73.63;101598.09;5022179;28;20041;-64
2023/07/13 08:51:33;;;;;;;18.42;9.00;;;;;;;18.83;73.36;101591.69;5014540;28;20501;-64
2023/07/13 08:54:09;;;;;;;14.75;8.43;;;;;;;18.91;72.34;101591.47;5021506;28;20033;-64
2023/07/13 08:56:34;;;;;;;17.95;8.85;;;;;;;19.02;72.10;101587.31;5022125;28;20033;-64
2023/07/13 08:59:14;;;;;;;16.00;8.90;;;;;;;19.07;71.10;101592.91;5022375;28;20037;-63
2023/07/13 09:01:51;;;;;;;20.35;9.90;;;;;;;19.17;71.39;101590.66;5016054;28;20025;-62
2023/07/13 09:04:23;;;;;;;16.08;9.27;;;;;;;19.34;71.66;101599.94;5006199;28;20613;-61
2023/07/13 09:07:01;;;;;;;18.90;9.63;;;;;;;19.32;70.48;101602.00;5017699;28;20049;-61
2023/07/13 09:09:33;;;;;;;19.88;9.82;;;;;;;19.29;70.92;101601.59;5028146;28;20056;-61
2023/07/13 09:12:14;;;;;;;14.68;9.50;;;;;;;19.39;70.96;101593.94;5024441;28;20036;-61
2023/07/13 09:14:52;;;;;;;15.35;8.90;;;;;;;19.48;70.01;101588.09;5022397;28;20064;-62
2023/07/13 09:17:22;;;;;;;20.90;9.82;;;;;;;19.45;69.54;101588.53;5019837;28;20021;-61
2023/07/13 09:19:56;;;;;;;15.45;8.80;;;;;;;19.35;69.57;101595.38;5026796;28;20345;-62
2023/07/13 09:22:27;;;;;;;19.02;8.98;;;;;;;19.25;69.84;101586.91;5018421;28;20033;-62
2023/07/13 09:25:04;;;;;;;17.67;9.13;;;;;;;19.23;69.84;101594.38;5023122;28;20033;-62
2023/07/13 09:27:42;;;;;;;17.92;9.68;;;;;;;19.42;69.73;101588.13;5021189;28;20029;-61
2023/07/13 09:30:13;;;;;;;20.50;8.43;;;;;;;19.45;69.14;101588.53;5022819;28;20076;-62
2023/07/13 09:32:47;;;;;;;17.92;9.32;;;;;;;19.52;68.52;101590.38;5022585;28;20025;-61
2023/07/13 09:35:16;;;;;;;18.00;9.27;;;;;;;19.74;68.63;101591.78;5022828;28;20112;-62
2023/07/13 09:37:44;;;;;;;15.55;8.20;;;;;;;19.79;67.09;101602.75;5030375;28;20029;-62
2023/07/13 09:40:37;;;;;;;15.83;9.23;;;;;;;19.86;67.52;101600.03;5032155;28;20516;-62
2023/07/13 09:43:05;;;;;;;17.05;10.02;;;;;;;19.85;67.53;101583.03;5030486;28;20022;-62
2023/07/13 09:45:33;;;;;;;18.27;10.45;;;;;;;19.79;67.26;101581.19;5023914;28;20698;-62
2023/07/13 09:48:13;;;;;;;13.88;10.13;;;;;;;19.82;67.46;101579.94;5031207;28;20072;-64
2023/07/13 09:50:40;;;;;;;16.15;10.40;;;;;;;19.77;67.31;101589.50;5032523;28;20034;-61
2023/07/13 09:53:12;;;;;;;16.90;10.02;;;;;;;19.68;67.24;101596.19;5031338;28;20036;-61
2023/07/13 09:55:39;;;;;;;16.45;9.93;;;;;;;19.68;67.13;101588.09;5027872;28;20025;-62
2023/07/13 09:58:10;;;;;;;15.43;8.82;;;;;;;19.83;66.29;101589.69;5031698;28;20491;-61
2023/07/13 10:00:36;;;;;;;15.32;9.05;;;;;;;19.99;66.44;101598.13;5023426;28;20109;-62
2023/07/13 10:03:16;;;;;;;16.88;9.23;;;;;;;19.95;65.92;101594.22;5029735;28;20621;-62
2023/07/13 10:05:44;;;;;;;13.45;9.15;;;;;;;20.10;66.03;101588.53;5025261;28;20550;-61
2023/07/13 10:08:30;;;;;;;15.57;8.93;;;;;;;20.28;66.18;101606.69;5018622;28;20786;-62
2023/07/13 10:11:11;;;;;;;12.32;7.88;;;;;;;20.19;65.33;101602.56;5024608;28;20492;-62
2023/07/13 10:13:42;;;;;;;17.23;7.93;;;;;;;19.92;65.00;101602.69;5028973;28;20037;-61
2023/07/13 10:16:09;;;;;;;16.30;8.45;;;;;;;19.74;65.48;101616.06;5029110;28;20033;-62
2023/07/13 10:18:58;;;;;;;14.38;8.75;;;;;;;19.54;66.94;101618.78;5033417;28;20482;-61
2023/07/13 10:21:29;;;;;;;13.55;8.27;;;;;;;19.39;67.50;101612.78;5020194;28;20021;-61
2023/07/13 10:24:21;;;;;;;13.77;8.95;;;;;;;19.59;69.51;101607.38;5026516;28;20060;-61
2023/07/13 10:27:10;;;;;;;16.27;8.82;;;;;;;19.73;68.64;101617.09;5014154;28;20589;-61
2023/07/13 10:29:52;;;;;;;15.77;8.45;;;;;;;19.80;67.56;101610.63;5021713;28;20091;-61
2023/07/13 10:32:22;;;;;;;15.82;8.35;;;;;;;20.10;67.79;101613.63;5024641;28;20033;-61
2023/07/13 10:34:50;;;;;;;11.75;7.97;;;;;;;20.04;66.21;101610.97;5021181;28;20033;-61
2023/07/13 10:37:51;;;;;;;13.97;8.03;;;;;;;19.91;66.79;101617.22;5019974;28;20048;-61
2023/07/13 10:40:27;;;;;;;11.98;7.78;;;;;;;19.83;66.61;101617.47;5025520;28;20090;-62
2023/07/13 10:42:56;;;;;;;12.68;7.47;;;;;;;19.78;66.62;101612.72;5021310;28;20030;-62
2023/07/13 10:45:23;;;;;;;16.20;8.30;;;;;;;19.80;66.80;101620.59;5031139;28;20022;-61
2023/07/13 10:47:52;;;;;;;10.32;7.03;;;;;;;19.90;66.15;101629.03;5021897;28;20041;-62
2023/07/13 10:50:27;;;;;;;13.75;7.20;;;;;;;20.08;65.47;101626.50;5023329;28;20033;-62
2023/07/13 10:52:55;;;;;;;12.90;7.20;;;;;;;20.28;64.91;101634.50;5023274;28;20026;-61
2023/07/13 10:55:48;;;;;;;12.85;7.30;;;;;;;20.52;64.11;101632.09;5029271;28;20532;-62
2023/07/13 10:58:14;;;;;;;8.25;6.00;;;;;;;20.71;63.17;101633.84;5022640;28;20072;-62
2023/07/13 11:00:50;;;;;;;12.70;6.40;;;;;;;20.65;63.13;101632.03;5019969;28;20065;-62
2023/07/13 11:03:19;;;;;;;12.68;5.80;;;;;;;20.50;62.20;101631.50;5024195;28;20049;-61
2023/07/13 11:05:50;;;;;;;11.52;5.93;;;;;;;20.60;62.53;101635.38;5023349;28;20625;-62
2023/07/13 11:08:37;;;;;;;15.38;5.90;;;;;;;20.80;62.79;101637.94;5020768;28;20437;-61
2023/07/13 11:11:03;;;;;;;11.07;6.38;;;;;;;20.70;62.25;101643.81;5020526;28;20036;-62
2023/07/13 11:13:54;;;;;;;12.85;5.40;;;;;;;20.71;62.83;101647.34;5022815;28;20060;-61
2023/07/13 11:16:20;;;;;;;12.80;5.10;;;;;;;20.69;61.73;101635.94;5029955;28;20045;-61
2023/07/13 11:18:51;;;;;;;10.20;4.03;;;;;;;20.64;63.11;101663.59;5023801;28;20044;-61
2023/07/13 11:21:22;;;;;;;11.68;4.05;;;;;;;20.34;64.96;101651.69;5027741;28;20024;-61